sensor_id;sensor_type;location;lat;lon;timestamp;pressure;altitude;pressure_sealevel;temperature;humidity
18167;BME280;9208;42.688;23.404;2023-04-01T00:00:51;94616.84;;;11.39;90.89
18167;BME280;9208;42.688;23.404;2023-04-01T00:03:17;94612.38;;;11.42;89.56
18167;BME280;9208;42.688;23.404;2023-04-01T00:05:43;94613.38;;;11.39;89.08
18167;BME280;9208;42.688;23.404;2023-04-01T00:08:08;94613.38;;;11.33;89.38
18167;BME280;9208;42.688;23.404;2023-04-01T00:10:34;94619.13;;;11.24;90.33
18167;BME280;9208;42.688;23.404;2023-04-01T00:12:59;94627.63;;;11.15;91.94
18167;BME280;9208;42.688;23.404;2023-04-01T00:15:25;94617.66;;;11.07;92.74
18167;BME280;9208;42.688;23.404;2023-04-01T00:17:51;94623.16;;;11.07;92.96
18167;BME280;9208;42.688;23.404;2023-04-01T00:20:16;94630.13;;;11.02;93.10
18167;BME280;9208;42.688;23.404;2023-04-01T00:22:42;94630.16;;;10.97;93.92
18167;BME280;9208;42.688;23.404;2023-04-01T00:25:07;94630.63;;;10.95;94.58
18167;BME280;9208;42.688;23.404;2023-04-01T00:27:33;94620.41;;;10.96;94.42
18167;BME280;9208;42.688;23.404;2023-04-01T00:29:59;94620.66;;;10.98;94.67
18167;BME280;9208;42.688;23.404;2023-04-01T00:32:24;94619.19;;;10.97;93.81
18167;BME280;9208;42.688;23.404;2023-04-01T00:34:51;94611.94;;;10.83;96.37
18167;BME280;9208;42.688;23.404;2023-04-01T00:37:18;94611.47;;;10.79;96.92
18167;BME280;9208;42.688;23.404;2023-04-01T00:39:44;94607.47;;;10.74;97.92
18167;BME280;9208;42.688;23.404;2023-04-01T00:42:10;94603.72;;;10.77;97.56
18167;BME280;9208;42.688;23.404;2023-04-01T00:44:40;94606.72;;;10.85;96.91
18167;BME280;9208;42.688;23.404;2023-04-01T00:47:06;94599.97;;;10.80;97.57
18167;BME280;9208;42.688;23.404;2023-04-01T00:49:44;94583.03;;;10.87;97.42
18167;BME280;9208;42.688;23.404;2023-04-01T00:52:14;94576.06;;;10.86;97.08
18167;BME280;9208;42.688;23.404;2023-04-01T00:54:44;94576.78;;;10.87;97.20
18167;BME280;9208;42.688;23.404;2023-04-01T00:57:25;94576.06;;;10.81;99.10
18167;BME280;9208;42.688;23.404;2023-04-01T00:59:54;94580.53;;;10.89;97.67
18167;BME280;9208;42.688;23.404;2023-04-01T01:02:22;94574.53;;;10.91;97.53
18167;BME280;9208;42.688;23.404;2023-04-01T01:04:48;94553.13;;;10.78;97.83
18167;BME280;9208;42.688;23.404;2023-04-01T01:12:34;94549.88;;;10.96;97.20
18167;BME280;9208;42.688;23.404;2023-04-01T01:15:20;94538.66;;;10.89;98.39
18167;BME280;9208;42.688;23.404;2023-04-01T01:18:09;94550.09;;;10.98;97.45
18167;BME280;9208;42.688;23.404;2023-04-01T01:29:00;94543.34;;;11.10;95.43
18167;BME280;9208;42.688;23.404;2023-04-01T01:37:31;94530.91;;;11.04;94.27
18167;BME280;9208;42.688;23.404;2023-04-01T01:40:06;94531.38;;;11.13;92.89
18167;BME280;9208;42.688;23.404;2023-04-01T01:42:35;94524.88;;;11.16;91.58
18167;BME280;9208;42.688;23.404;2023-04-01T01:45:03;94510.66;;;11.18;90.74
18167;BME280;9208;42.688;23.404;2023-04-01T01:47:31;94503.88;;;11.30;89.06
18167;BME280;9208;42.688;23.404;2023-04-01T01:49:58;94511.56;;;11.37;86.85
18167;BME280;9208;42.688;23.404;2023-04-01T01:52:27;94505.09;;;11.34;86.14
18167;BME280;9208;42.688;23.404;2023-04-01T01:54:55;94511.84;;;11.39;86.04
18167;BME280;9208;42.688;23.404;2023-04-01T01:57:27;94508.81;;;11.42;85.08
18167;BME280;9208;42.688;23.404;2023-04-01T01:59:58;94502.34;;;11.40;84.17
18167;BME280;9208;42.688;23.404;2023-04-01T02:02:26;94495.13;;;11.37;84.47
18167;BME280;9208;42.688;23.404;2023-04-01T02:04:56;94497.41;;;11.27;85.88
18167;BME280;9208;42.688;23.404;2023-04-01T02:07:30;94496.16;;;11.34;85.70
18167;BME280;9208;42.688;23.404;2023-04-01T02:09:57;94499.13;;;11.36;84.64
18167;BME280;9208;42.688;23.404;2023-04-01T02:12:24;94499.13;;;11.36;85.15
18167;BME280;9208;42.688;23.404;2023-04-01T02:17:24;94487.44;;;11.30;85.87
18167;BME280;9208;42.688;23.404;2023-04-01T02:19:56;94487.94;;;11.23;86.79
18167;BME280;9208;42.688;23.404;2023-04-01T02:22:57;94485.41;;;11.30;85.59
18167;BME280;9208;42.688;23.404;2023-04-01T02:25:18;94485.91;;;11.34;86.57
18167;BME280;9208;42.688;23.404;2023-04-01T02:27:46;94475.66;;;11.40;86.51
18167;BME280;9208;42.688;23.404;2023-04-01T02:30:14;94473.66;;;11.41;87.30
18167;BME280;9208;42.688;23.404;2023-04-01T02:32:41;94470.19;;;11.35;87.55
18167;BME280;9208;42.688;23.404;2023-04-01T02:35:11;94479.47;;;11.21;89.64
18167;BME280;9208;42.688;23.404;2023-04-01T02:37:39;94485.81;;;10.83;95.19
18167;BME280;9208;42.688;23.404;2023-04-01T02:40:11;94477.41;;;10.64;97.83
18167;BME280;9208;42.688;23.404;2023-04-01T02:42:38;94477.63;;;10.77;96.23
18167;BME280;9208;42.688;23.404;2023-04-01T02:45:04;94481.09;;;10.83;95.91
18167;BME280;9208;42.688;23.404;2023-04-01T02:47:30;94493.81;;;10.81;95.91
18167;BME280;9208;42.688;23.404;2023-04-01T02:49:56;94506.06;;;10.63;97.40
18167;BME280;9208;42.688;23.404;2023-04-01T02:52:28;94507.03;;;10.71;97.12
18167;BME280;9208;42.688;23.404;2023-04-01T02:54:55;94512.75;;;10.79;95.98
18167;BME280;9208;42.688;23.404;2023-04-01T02:57:20;94509.00;;;10.82;96.98
18167;BME280;9208;42.688;23.404;2023-04-01T02:59:46;94501.53;;;10.88;95.63
18167;BME280;9208;42.688;23.404;2023-04-01T03:02:11;94493.03;;;10.91;95.80
18167;BME280;9208;42.688;23.404;2023-04-01T03:04:37;94509.22;;;10.95;95.26
18167;BME280;9208;42.688;23.404;2023-04-01T03:07:02;94522.19;;;11.00;95.98
18167;BME280;9208;42.688;23.404;2023-04-01T03:09:28;94506.22;;;11.09;94.26
18167;BME280;9208;42.688;23.404;2023-04-01T03:11:54;94505.72;;;11.00;93.76
18167;BME280;9208;42.688;23.404;2023-04-01T03:14:19;94525.19;;;10.96;94.21
18167;BME280;9208;42.688;23.404;2023-04-01T03:16:48;94513.72;;;10.98;94.72
18167;BME280;9208;42.688;23.404;2023-04-01T03:19:13;94501.97;;;11.08;96.18
18167;BME280;9208;42.688;23.404;2023-04-01T03:21:38;94519.94;;;11.04;98.71
18167;BME280;9208;42.688;23.404;2023-04-01T03:24:07;94516.19;;;11.07;99.12
18167;BME280;9208;42.688;23.404;2023-04-01T03:26:33;94531.16;;;11.06;99.57
18167;BME280;9208;42.688;23.404;2023-04-01T03:28:58;94525.41;;;11.09;99.03
18167;BME280;9208;42.688;23.404;2023-04-01T03:31:26;94539.38;;;11.06;98.29
18167;BME280;9208;42.688;23.404;2023-04-01T03:33:52;94534.63;;;11.12;97.68
18167;BME280;9208;42.688;23.404;2023-04-01T03:36:17;94519.94;;;11.04;97.46
18167;BME280;9208;42.688;23.404;2023-04-01T03:38:43;94538.13;;;10.96;98.58
18167;BME280;9208;42.688;23.404;2023-04-01T03:41:13;94539.91;;;10.88;100.00
18167;BME280;9208;42.688;23.404;2023-04-01T03:43:39;94530.19;;;10.92;100.00
18167;BME280;9208;42.688;23.404;2023-04-01T03:46:05;94517.22;;;10.87;100.00
18167;BME280;9208;42.688;23.404;2023-04-01T03:48:30;94506.75;;;10.86;100.00
18167;BME280;9208;42.688;23.404;2023-04-01T03:50:55;94509.00;;;10.87;100.00
18167;BME280;9208;42.688;23.404;2023-04-01T03:53:21;94498.75;;;10.99;100.00
18167;BME280;9208;42.688;23.404;2023-04-01T03:55:47;94480.28;;;11.05;100.00
18167;BME280;9208;42.688;23.404;2023-04-01T03:58:12;94470.06;;;11.05;100.00
18167;BME280;9208;42.688;23.404;2023-04-01T04:00:38;94456.28;;;11.16;100.00
18167;BME280;9208;42.688;23.404;2023-04-01T04:03:03;94442.38;;;11.09;100.00
18167;BME280;9208;42.688;23.404;2023-04-01T04:05:30;94436.59;;;11.12;100.00
18167;BME280;9208;42.688;23.404;2023-04-01T04:07:56;94426.13;;;11.16;100.00
18167;BME280;9208;42.688;23.404;2023-04-01T04:10:21;94420.38;;;11.20;100.00
18167;BME280;9208;42.688;23.404;2023-04-01T04:12:49;94425.63;;;11.18;100.00
18167;BME280;9208;42.688;23.404;2023-04-01T04:15:14;94417.19;;;11.10;100.00
18167;BME280;9208;42.688;23.404;2023-04-01T04:17:40;94421.47;;;11.06;100.00
18167;BME280;9208;42.688;23.404;2023-04-01T04:20:06;94411.00;;;10.99;100.00
18167;BME280;9208;42.688;23.404;2023-04-01T04:22:31;94401.78;;;10.96;100.00
18167;BME280;9208;42.688;23.404;2023-04-01T04:24:56;94393.84;;;10.87;100.00
18167;BME280;9208;42.688;23.404;2023-04-01T04:27:22;94387.38;;;10.90;100.00
18167;BME280;9208;42.688;23.404;2023-04-01T04:29:47;94388.59;;;10.89;100.00
18167;BME280;9208;42.688;23.404;2023-04-01T04:32:13;94391.34;;;10.89;100.00
18167;BME280;9208;42.688;23.404;2023-04-01T04:34:38;94372.69;;;10.82;100.00
18167;BME280;9208;42.688;23.404;2023-04-01T04:37:03;94376.69;;;10.81;100.00
18167;BME280;9208;42.688;23.404;2023-04-01T04:39:29;94388.44;;;10.71;100.00
18167;BME280;9208;42.688;23.404;2023-04-01T04:41:55;94375.66;;;10.84;100.00
18167;BME280;9208;42.688;23.404;2023-04-01T04:44:21;94360.53;;;10.72;100.00
18167;BME280;9208;42.688;23.404;2023-04-01T04:46:47;94357.50;;;10.81;100.00
18167;BME280;9208;42.688;23.404;2023-04-01T04:49:13;94359.78;;;10.72;100.00
18167;BME280;9208;42.688;23.404;2023-04-01T04:51:39;94362.50;;;10.77;100.00
18167;BME280;9208;42.688;23.404;2023-04-01T04:54:05;94347.81;;;10.75;100.00
18167;BME280;9208;42.688;23.404;2023-04-01T04:56:31;94345.03;;;10.80;100.00
18167;BME280;9208;42.688;23.404;2023-04-01T04:58:57;94341.06;;;10.81;100.00
18167;BME280;9208;42.688;23.404;2023-04-01T05:01:23;94338.75;;;10.91;100.00
18167;BME280;9208;42.688;23.404;2023-04-01T05:03:49;94340.72;;;10.96;100.00
18167;BME280;9208;42.688;23.404;2023-04-01T05:06:15;94338.94;;;10.98;100.00
18167;BME280;9208;42.688;23.404;2023-04-01T05:08:42;94336.16;;;11.09;100.00
18167;BME280;9208;42.688;23.404;2023-04-01T05:11:18;94333.16;;;11.13;96.51
18167;BME280;9208;42.688;23.404;2023-04-01T05:13:45;94331.63;;;11.17;94.67
18167;BME280;9208;42.688;23.404;2023-04-01T05:16:12;94334.09;;;11.21;93.37
18167;BME280;9208;42.688;23.404;2023-04-01T05:18:38;94318.34;;;11.27;92.54
18167;BME280;9208;42.688;23.404;2023-04-01T05:21:04;94323.81;;;11.27;92.32
18167;BME280;9208;42.688;23.404;2023-04-01T05:23:32;94326.81;;;11.29;91.98
18167;BME280;9208;42.688;23.404;2023-04-01T05:25:58;94322.03;;;11.35;91.19
18167;BME280;9208;42.688;23.404;2023-04-01T05:28:24;94318.03;;;11.36;91.60
18167;BME280;9208;42.688;23.404;2023-04-01T05:30:49;94305.56;;;11.35;91.69
18167;BME280;9208;42.688;23.404;2023-04-01T05:33:15;94302.31;;;11.36;91.18
18167;BME280;9208;42.688;23.404;2023-04-01T05:35:40;94310.03;;;11.38;91.28
18167;BME280;9208;42.688;23.404;2023-04-01T05:38:06;94307.53;;;11.40;91.52
18167;BME280;9208;42.688;23.404;2023-04-01T05:40:34;94310.53;;;11.42;91.57
18167;BME280;9208;42.688;23.404;2023-04-01T05:43:00;94320.94;;;11.49;90.41
18167;BME280;9208;42.688;23.404;2023-04-01T05:45:26;94317.19;;;11.52;90.78
18167;BME280;9208;42.688;23.404;2023-04-01T05:47:51;94322.66;;;11.52;90.00
18167;BME280;9208;42.688;23.404;2023-04-01T05:50:17;94314.66;;;11.54;91.96
18167;BME280;9208;42.688;23.404;2023-04-01T05:52:42;94303.63;;;11.59;92.29
18167;BME280;9208;42.688;23.404;2023-04-01T05:55:08;94304.91;;;11.58;92.33
18167;BME280;9208;42.688;23.404;2023-04-01T05:57:33;94297.66;;;11.61;91.02
18167;BME280;9208;42.688;23.404;2023-04-01T05:59:59;94298.66;;;11.63;91.50
18167;BME280;9208;42.688;23.404;2023-04-01T06:02:24;94298.94;;;11.60;92.69
18167;BME280;9208;42.688;23.404;2023-04-01T06:04:54;94293.66;;;11.62;92.25
18167;BME280;9208;42.688;23.404;2023-04-01T06:07:27;94291.66;;;11.62;92.61
18167;BME280;9208;42.688;23.404;2023-04-01T06:09:54;94292.41;;;11.63;92.86
18167;BME280;9208;42.688;23.404;2023-04-01T06:17:56;94298.28;;;11.78;93.18
18167;BME280;9208;42.688;23.404;2023-04-01T06:34:32;94291.81;;;12.23;91.26
18167;BME280;9208;42.688;23.404;2023-04-01T06:39:38;94281.69;;;12.37;90.98
18167;BME280;9208;42.688;23.404;2023-04-01T06:42:29;94272.03;;;12.49;90.52
18167;BME280;9208;42.688;23.404;2023-04-01T06:53:06;94260.47;;;12.93;87.58
18167;BME280;9208;42.688;23.404;2023-04-01T06:55:51;94259.44;;;12.96;89.04
18167;BME280;9208;42.688;23.404;2023-04-01T06:58:35;94245.63;;;13.01;89.96
18167;BME280;9208;42.688;23.404;2023-04-01T07:01:07;94228.81;;;13.05;89.62
18167;BME280;9208;42.688;23.404;2023-04-01T07:03:35;94228.66;;;13.16;88.85
18167;BME280;9208;42.688;23.404;2023-04-01T07:06:08;94216.16;;;13.15;89.83
18167;BME280;9208;42.688;23.404;2023-04-01T07:08:38;94214.75;;;13.08;92.91
18167;BME280;9208;42.688;23.404;2023-04-01T07:11:09;94226.13;;;13.18;87.92
18167;BME280;9208;42.688;23.404;2023-04-01T07:13:50;94232.72;;;13.28;85.43
18167;BME280;9208;42.688;23.404;2023-04-01T07:16:30;94228.75;;;13.42;82.80
18167;BME280;9208;42.688;23.404;2023-04-01T07:21:53;94228.16;;;13.62;80.64
18167;BME280;9208;42.688;23.404;2023-04-01T07:24:31;94212.06;;;13.66;78.71
18167;BME280;9208;42.688;23.404;2023-04-01T07:26:58;94237.19;;;13.75;76.08
18167;BME280;9208;42.688;23.404;2023-04-01T07:29:26;94226.28;;;13.83;73.18
18167;BME280;9208;42.688;23.404;2023-04-01T07:34:34;94232.75;;;13.98;72.37
18167;BME280;9208;42.688;23.404;2023-04-01T07:37:13;94226.50;;;14.11;70.79
18167;BME280;9208;42.688;23.404;2023-04-01T07:56:02;94223.22;;;14.64;66.69
18167;BME280;9208;42.688;23.404;2023-04-01T08:01:28;94229.59;;;14.72;65.88
18167;BME280;9208;42.688;23.404;2023-04-01T08:04:39;94214.69;;;14.75;67.38
18167;BME280;9208;42.688;23.404;2023-04-01T08:07:30;94219.25;;;14.86;65.87
18167;BME280;9208;42.688;23.404;2023-04-01T08:10:18;94230.09;;;14.84;64.25
18167;BME280;9208;42.688;23.404;2023-04-01T08:23:16;94189.16;;;14.75;60.64
18167;BME280;9208;42.688;23.404;2023-04-01T08:25:52;94181.38;;;14.86;60.81
18167;BME280;9208;42.688;23.404;2023-04-01T08:33:32;94199.44;;;15.08;57.67
18167;BME280;9208;42.688;23.404;2023-04-01T08:36:20;94187.00;;;15.14;56.67
18167;BME280;9208;42.688;23.404;2023-04-01T08:47:20;94166.53;;;15.30;56.91
18167;BME280;9208;42.688;23.404;2023-04-01T08:49:56;94141.88;;;15.32;56.46
18167;BME280;9208;42.688;23.404;2023-04-01T08:56:48;94136.34;;;15.53;55.23
18167;BME280;9208;42.688;23.404;2023-04-01T09:04:39;94175.94;;;16.04;52.21
18167;BME280;9208;42.688;23.404;2023-04-01T09:07:25;94203.69;;;16.19;51.52
18167;BME280;9208;42.688;23.404;2023-04-01T09:10:18;94212.03;;;16.26;49.96
18167;BME280;9208;42.688;23.404;2023-04-01T09:13:08;94202.97;;;16.26;49.54
18167;BME280;9208;42.688;23.404;2023-04-01T09:16:26;94206.34;;;16.32;50.29
18167;BME280;9208;42.688;23.404;2023-04-01T09:27:44;94217.00;;;16.56;48.13
18167;BME280;9208;42.688;23.404;2023-04-01T09:33:13;94193.22;;;16.60;48.47
18167;BME280;9208;42.688;23.404;2023-04-01T09:36:33;94182.91;;;16.61;48.37
18167;BME280;9208;42.688;23.404;2023-04-01T09:38:49;94188.09;;;16.64;48.26
18167;BME280;9208;42.688;23.404;2023-04-01T09:41:28;94195.84;;;16.66;47.31
18167;BME280;9208;42.688;23.404;2023-04-01T09:44:36;94184.63;;;16.71;47.92
18167;BME280;9208;42.688;23.404;2023-04-01T10:01:17;94101.59;;;16.71;50.97
18167;BME280;9208;42.688;23.404;2023-04-01T10:04:23;94083.16;;;16.66;51.53
18167;BME280;9208;42.688;23.404;2023-04-01T10:10:37;94080.91;;;16.65;51.17
18167;BME280;9208;42.688;23.404;2023-04-01T10:19:14;94083.53;;;16.70;50.59
18167;BME280;9208;42.688;23.404;2023-04-01T11:09:39;94021.72;;;16.90;49.04
18167;BME280;9208;42.688;23.404;2023-04-01T11:15:20;94025.41;;;16.85;48.61
18167;BME280;9208;42.688;23.404;2023-04-01T11:33:21;94009.56;;;16.86;49.94
18167;BME280;9208;42.688;23.404;2023-04-01T11:35:53;94021.34;;;16.79;50.26
18167;BME280;9208;42.688;23.404;2023-04-01T11:47:12;94080.56;;;16.68;54.27
18167;BME280;9208;42.688;23.404;2023-04-01T11:52:46;94117.59;;;16.58;56.55
18167;BME280;9208;42.688;23.404;2023-04-01T11:58:35;94053.28;;;16.22;78.40
18167;BME280;9208;42.688;23.404;2023-04-01T12:01:21;94079.16;;;15.96;89.57
18167;BME280;9208;42.688;23.404;2023-04-01T12:06:53;94211.41;;;15.44;100.00
18167;BME280;9208;42.688;23.404;2023-04-01T12:18:17;94197.41;;;14.28;100.00
18167;BME280;9208;42.688;23.404;2023-04-01T12:21:35;94196.75;;;14.35;100.00
18167;BME280;9208;42.688;23.404;2023-04-01T12:24:25;94189.53;;;14.19;100.00
18167;BME280;9208;42.688;23.404;2023-04-01T12:35:20;94211.88;;;13.77;100.00
18167;BME280;9208;42.688;23.404;2023-04-01T12:46:16;94226.56;;;13.66;100.00
18167;BME280;9208;42.688;23.404;2023-04-01T13:16:23;94144.72;;;13.80;100.00
18167;BME280;9208;42.688;23.404;2023-04-01T13:22:32;94114.44;;;13.80;100.00
18167;BME280;9208;42.688;23.404;2023-04-01T13:27:18;94127.66;;;13.81;100.00
18167;BME280;9208;42.688;23.404;2023-04-01T13:32:43;94075.88;;;13.67;100.00
18167;BME280;9208;42.688;23.404;2023-04-01T13:44:30;94081.16;;;13.65;100.00
18167;BME280;9208;42.688;23.404;2023-04-01T13:47:30;94064.84;;;13.54;100.00
18167;BME280;9208;42.688;23.404;2023-04-01T13:53:10;94075.22;;;13.61;100.00
18167;BME280;9208;42.688;23.404;2023-04-01T14:07:35;94067.63;;;13.67;100.00
18167;BME280;9208;42.688;23.404;2023-04-01T14:10:33;94053.63;;;13.65;100.00
18167;BME280;9208;42.688;23.404;2023-04-01T14:13:16;94058.69;;;13.61;100.00
18167;BME280;9208;42.688;23.404;2023-04-01T14:21:38;94054.22;;;13.84;100.00
18167;BME280;9208;42.688;23.404;2023-04-01T14:33:28;94004.50;;;13.56;100.00
18167;BME280;9208;42.688;23.404;2023-04-01T14:42:32;93990.69;;;13.82;100.00
18167;BME280;9208;42.688;23.404;2023-04-01T14:55:36;94013.59;;;14.23;100.00
18167;BME280;9208;42.688;23.404;2023-04-01T14:58:15;94001.72;;;14.15;100.00
18167;BME280;9208;42.688;23.404;2023-04-01T15:06:26;94018.75;;;14.27;100.00
18167;BME280;9208;42.688;23.404;2023-04-01T15:09:36;94020.66;;;14.32;100.00
18167;BME280;9208;42.688;23.404;2023-04-01T15:12:26;94026.38;;;14.34;100.00
18167;BME280;9208;42.688;23.404;2023-04-01T15:18:18;94026.13;;;14.45;100.00
18167;BME280;9208;42.688;23.404;2023-04-01T15:20:56;94023.00;;;14.48;100.00
18167;BME280;9208;42.688;23.404;2023-04-01T15:26:13;94023.63;;;14.54;100.00
18167;BME280;9208;42.688;23.404;2023-04-01T15:34:57;94023.00;;;14.48;100.00
18167;BME280;9208;42.688;23.404;2023-04-01T15:46:11;94033.50;;;14.50;100.00
18167;BME280;9208;42.688;23.404;2023-04-01T16:02:35;94275.53;;;13.73;100.00
18167;BME280;9208;42.688;23.404;2023-04-01T16:05:24;94285.66;;;13.34;100.00
18167;BME280;9208;42.688;23.404;2023-04-01T16:24:17;94272.47;;;12.10;100.00
18167;BME280;9208;42.688;23.404;2023-04-01T16:29:45;94300.88;;;11.94;100.00
18167;BME280;9208;42.688;23.404;2023-04-01T16:35:05;94303.53;;;11.76;100.00
18167;BME280;9208;42.688;23.404;2023-04-01T16:38:12;94304.50;;;11.78;100.00
18167;BME280;9208;42.688;23.404;2023-04-01T16:46:40;94326.81;;;11.64;100.00
18167;BME280;9208;42.688;23.404;2023-04-01T16:52:04;94349.84;;;11.50;100.00
18167;BME280;9208;42.688;23.404;2023-04-01T16:54:46;94333.38;;;11.50;100.00
18167;BME280;9208;42.688;23.404;2023-04-01T16:57:23;94333.13;;;11.53;100.00
18167;BME280;9208;42.688;23.404;2023-04-01T17:06:45;94343.97;;;11.35;100.00
18167;BME280;9208;42.688;23.404;2023-04-01T17:09:37;94346.50;;;11.33;100.00
18167;BME280;9208;42.688;23.404;2023-04-01T17:15:07;94349.50;;;11.29;100.00
18167;BME280;9208;42.688;23.404;2023-04-01T17:17:46;94365.28;;;11.18;100.00
18167;BME280;9208;42.688;23.404;2023-04-01T17:20:42;94371.78;;;11.15;100.00
18167;BME280;9208;42.688;23.404;2023-04-01T17:23:52;94368.56;;;11.11;100.00
18167;BME280;9208;42.688;23.404;2023-04-01T17:35:09;94369.41;;;10.89;100.00
18167;BME280;9208;42.688;23.404;2023-04-01T17:52:24;94409.53;;;10.87;100.00
18167;BME280;9208;42.688;23.404;2023-04-01T18:00:19;94427.81;;;10.68;100.00
18167;BME280;9208;42.688;23.404;2023-04-01T18:03:12;94443.75;;;10.69;100.00
18167;BME280;9208;42.688;23.404;2023-04-01T18:24:45;94458.72;;;10.57;100.00
18167;BME280;9208;42.688;23.404;2023-04-01T18:27:18;94460.72;;;10.57;100.00
18167;BME280;9208;42.688;23.404;2023-04-01T18:29:51;94467.69;;;10.58;100.00
18167;BME280;9208;42.688;23.404;2023-04-01T18:32:37;94476.41;;;10.62;100.00
18167;BME280;9208;42.688;23.404;2023-04-01T18:40:36;94466.69;;;10.55;100.00
18167;BME280;9208;42.688;23.404;2023-04-01T18:43:18;94458.97;;;10.54;100.00
18167;BME280;9208;42.688;23.404;2023-04-01T18:45:54;94460.22;;;10.53;100.00
18167;BME280;9208;42.688;23.404;2023-04-01T18:48:46;94473.19;;;10.58;100.00
18167;BME280;9208;42.688;23.404;2023-04-01T18:51:33;94474.94;;;10.55;100.00
18167;BME280;9208;42.688;23.404;2023-04-01T18:54:09;94476.91;;;10.55;100.00
18167;BME280;9208;42.688;23.404;2023-04-01T18:56:41;94480.91;;;10.54;100.00
18167;BME280;9208;42.688;23.404;2023-04-01T18:59:32;94490.88;;;10.57;100.00
18167;BME280;9208;42.688;23.404;2023-04-01T19:02:07;94491.84;;;10.65;100.00
18167;BME280;9208;42.688;23.404;2023-04-01T19:04:42;94488.84;;;10.68;100.00
18167;BME280;9208;42.688;23.404;2023-04-01T19:07:50;94495.81;;;10.75;100.00
18167;BME280;9208;42.688;23.404;2023-04-01T19:10:58;94499.31;;;10.70;100.00
18167;BME280;9208;42.688;23.404;2023-04-01T19:14:11;94503.78;;;10.78;100.00
18167;BME280;9208;42.688;23.404;2023-04-01T19:19:29;94509.00;;;10.76;100.00
18167;BME280;9208;42.688;23.404;2023-04-01T19:24:53;94514.25;;;10.80;100.00
18167;BME280;9208;42.688;23.404;2023-04-01T19:27:37;94517.97;;;10.88;100.00
18167;BME280;9208;42.688;23.404;2023-04-01T19:38:41;94536.66;;;10.95;100.00
18167;BME280;9208;42.688;23.404;2023-04-01T19:41:33;94531.38;;;11.02;100.00
18167;BME280;9208;42.688;23.404;2023-04-01T19:44:14;94536.91;;;10.97;100.00
18167;BME280;9208;42.688;23.404;2023-04-01T19:50:44;94546.59;;;11.03;100.00
18167;BME280;9208;42.688;23.404;2023-04-01T19:52:42;94541.09;;;11.09;100.00
18167;BME280;9208;42.688;23.404;2023-04-01T19:55:37;94537.88;;;11.05;100.00
18167;BME280;9208;42.688;23.404;2023-04-01T19:59:29;94554.09;;;10.97;100.00
18167;BME280;9208;42.688;23.404;2023-04-01T20:03:57;94536.38;;;11.04;100.00
18167;BME280;9208;42.688;23.404;2023-04-01T20:06:35;94544.13;;;11.05;100.00
18167;BME280;9208;42.688;23.404;2023-04-01T20:14:49;94536.88;;;11.02;100.00
18167;BME280;9208;42.688;23.404;2023-04-01T20:27:56;94549.84;;;11.02;100.00
18167;BME280;9208;42.688;23.404;2023-04-01T20:44:09;94567.00;;;11.19;100.00
18167;BME280;9208;42.688;23.404;2023-04-01T20:58:06;94568.75;;;11.16;100.00
18167;BME280;9208;42.688;23.404;2023-04-01T21:06:37;94569.53;;;11.11;100.00
18167;BME280;9208;42.688;23.404;2023-04-01T21:15:19;94584.50;;;10.83;100.00
18167;BME280;9208;42.688;23.404;2023-04-01T21:23:48;94597.75;;;10.73;100.00
18167;BME280;9208;42.688;23.404;2023-04-01T21:34:55;94588.28;;;10.63;100.00
18167;BME280;9208;42.688;23.404;2023-04-01T21:40:28;94593.00;;;10.52;100.00
18167;BME280;9208;42.688;23.404;2023-04-01T21:45:56;94596.97;;;10.40;100.00
18167;BME280;9208;42.688;23.404;2023-04-01T21:54:50;94593.94;;;10.10;100.00
18167;BME280;9208;42.688;23.404;2023-04-01T22:05:36;94592.41;;;10.03;100.00
18167;BME280;9208;42.688;23.404;2023-04-01T22:16:31;94569.28;;;10.15;100.00
18167;BME280;9208;42.688;23.404;2023-04-01T22:32:56;94571.28;;;10.26;100.00
18167;BME280;9208;42.688;23.404;2023-04-01T22:35:17;94566.09;;;10.34;100.00
18167;BME280;9208;42.688;23.404;2023-04-01T22:38:02;94566.09;;;10.34;100.00
18167;BME280;9208;42.688;23.404;2023-04-01T22:41:06;94566.09;;;10.39;100.00
18167;BME280;9208;42.688;23.404;2023-04-01T22:43:54;94573.06;;;10.35;100.00
18167;BME280;9208;42.688;23.404;2023-04-01T22:49:42;94583.53;;;10.31;100.00
18167;BME280;9208;42.688;23.404;2023-04-01T22:52:17;94577.56;;;10.32;100.00
18167;BME280;9208;42.688;23.404;2023-04-01T22:54:52;94582.28;;;10.32;100.00
18167;BME280;9208;42.688;23.404;2023-04-01T22:57:37;94593.47;;;10.28;100.00
18167;BME280;9208;42.688;23.404;2023-04-01T23:00:10;94598.97;;;10.28;100.00
18167;BME280;9208;42.688;23.404;2023-04-01T23:02:45;94606.69;;;10.30;100.00
18167;BME280;9208;42.688;23.404;2023-04-01T23:05:15;94604.69;;;10.30;100.00
18167;BME280;9208;42.688;23.404;2023-04-01T23:10:49;94608.19;;;10.31;98.43
18167;BME280;9208;42.688;23.404;2023-04-01T23:13:32;94609.16;;;10.33;95.98
18167;BME280;9208;42.688;23.404;2023-04-01T23:16:01;94611.16;;;10.38;97.44
18167;BME280;9208;42.688;23.404;2023-04-01T23:26:23;94612.59;;;10.06;100.00
18167;BME280;9208;42.688;23.404;2023-04-01T23:28:50;94613.84;;;10.05;100.00
18167;BME280;9208;42.688;23.404;2023-04-01T23:34:21;94616.78;;;9.96;100.00
18167;BME280;9208;42.688;23.404;2023-04-01T23:37:09;94617.03;;;9.98;100.00
18167;BME280;9208;42.688;23.404;2023-04-01T23:39:41;94618.75;;;9.95;100.00
18167;BME280;9208;42.688;23.404;2023-04-01T23:44:40;94613.78;;;9.94;100.00
18167;BME280;9208;42.688;23.404;2023-04-01T23:47:08;94611.28;;;9.90;100.00
18167;BME280;9208;42.688;23.404;2023-04-01T23:49:40;94606.56;;;9.96;98.58
18167;BME280;9208;42.688;23.404;2023-04-01T23:55:08;94606.81;;;9.93;96.67
18167;BME280;9208;42.688;23.404;2023-04-01T23:57:37;94608.06;;;9.92;94.40
